sensor_id;sensor_type;location;lat;lon;timestamp;P1;durP1;ratioP1;P2;durP2;ratioP2
18544;SDS011;9402;51.460;7.276;2022-10-15T00:00:09;12.00;;;7.33;;
18544;SDS011;9402;51.460;7.276;2022-10-15T00:02:12;15.50;;;8.67;;
18544;SDS011;9402;51.460;7.276;2022-10-15T00:04:16;18.23;;;7.33;;
18544;SDS011;9402;51.460;7.276;2022-10-15T00:06:19;16.33;;;7.30;;
18544;SDS011;9402;51.460;7.276;2022-10-15T00:08:22;19.27;;;9.60;;
18544;SDS011;9402;51.460;7.276;2022-10-15T00:10:24;16.40;;;7.80;;
18544;SDS011;9402;51.460;7.276;2022-10-15T00:12:26;11.67;;;6.50;;
18544;SDS011;9402;51.460;7.276;2022-10-15T00:14:29;20.67;;;8.27;;
18544;SDS011;9402;51.460;7.276;2022-10-15T00:16:31;12.33;;;7.30;;
18544;SDS011;9402;51.460;7.276;2022-10-15T00:18:34;14.40;;;7.53;;
18544;SDS011;9402;51.460;7.276;2022-10-15T00:20:41;13.73;;;7.50;;
18544;SDS011;9402;51.460;7.276;2022-10-15T00:22:43;12.47;;;6.77;;
18544;SDS011;9402;51.460;7.276;2022-10-15T00:24:45;16.17;;;8.00;;
18544;SDS011;9402;51.460;7.276;2022-10-15T00:26:48;10.00;;;6.50;;
18544;SDS011;9402;51.460;7.276;2022-10-15T00:28:51;11.80;;;5.93;;
18544;SDS011;9402;51.460;7.276;2022-10-15T00:30:58;12.47;;;6.87;;
18544;SDS011;9402;51.460;7.276;2022-10-15T00:33:02;10.93;;;6.57;;
18544;SDS011;9402;51.460;7.276;2022-10-15T00:35:04;11.90;;;7.40;;
18544;SDS011;9402;51.460;7.276;2022-10-15T00:37:09;11.07;;;6.27;;
18544;SDS011;9402;51.460;7.276;2022-10-15T00:39:11;8.80;;;5.60;;
18544;SDS011;9402;51.460;7.276;2022-10-15T00:41:15;8.73;;;4.87;;
18544;SDS011;9402;51.460;7.276;2022-10-15T00:43:33;8.53;;;4.73;;
18544;SDS011;9402;51.460;7.276;2022-10-15T00:45:37;10.10;;;4.33;;
18544;SDS011;9402;51.460;7.276;2022-10-15T00:47:40;11.67;;;5.70;;
18544;SDS011;9402;51.460;7.276;2022-10-15T00:49:43;11.03;;;6.50;;
18544;SDS011;9402;51.460;7.276;2022-10-15T00:51:50;9.97;;;5.80;;
18544;SDS011;9402;51.460;7.276;2022-10-15T00:53:56;11.67;;;6.37;;
18544;SDS011;9402;51.460;7.276;2022-10-15T00:55:58;16.50;;;7.33;;
18544;SDS011;9402;51.460;7.276;2022-10-15T00:58:02;11.93;;;7.07;;
18544;SDS011;9402;51.460;7.276;2022-10-15T01:00:08;12.77;;;6.70;;
18544;SDS011;9402;51.460;7.276;2022-10-15T01:02:14;10.33;;;6.90;;
18544;SDS011;9402;51.460;7.276;2022-10-15T01:04:18;15.10;;;8.03;;
18544;SDS011;9402;51.460;7.276;2022-10-15T01:06:21;11.63;;;6.70;;
18544;SDS011;9402;51.460;7.276;2022-10-15T01:08:24;12.23;;;6.90;;
18544;SDS011;9402;51.460;7.276;2022-10-15T01:10:29;11.63;;;6.00;;
18544;SDS011;9402;51.460;7.276;2022-10-15T01:12:38;12.67;;;8.23;;
18544;SDS011;9402;51.460;7.276;2022-10-15T01:14:48;12.40;;;6.63;;
18544;SDS011;9402;51.460;7.276;2022-10-15T01:16:57;8.70;;;4.97;;
18544;SDS011;9402;51.460;7.276;2022-10-15T01:19:05;10.03;;;5.23;;
18544;SDS011;9402;51.460;7.276;2022-10-15T01:21:12;11.50;;;4.53;;
18544;SDS011;9402;51.460;7.276;2022-10-15T01:23:31;7.10;;;4.70;;
18544;SDS011;9402;51.460;7.276;2022-10-15T01:26:17;6.40;;;3.40;;
18544;SDS011;9402;51.460;7.276;2022-10-15T01:28:36;5.20;;;3.50;;
18544;SDS011;9402;51.460;7.276;2022-10-15T01:30:46;3.17;;;2.57;;
18544;SDS011;9402;51.460;7.276;2022-10-15T01:32:56;4.00;;;3.00;;
18544;SDS011;9402;51.460;7.276;2022-10-15T01:35:10;7.13;;;3.53;;
18544;SDS011;9402;51.460;7.276;2022-10-15T01:37:19;3.60;;;2.63;;
18544;SDS011;9402;51.460;7.276;2022-10-15T01:39:26;4.70;;;3.53;;
18544;SDS011;9402;51.460;7.276;2022-10-15T01:41:31;6.40;;;3.97;;
18544;SDS011;9402;51.460;7.276;2022-10-15T01:43:38;7.93;;;3.57;;
18544;SDS011;9402;51.460;7.276;2022-10-15T01:45:47;6.37;;;4.00;;
18544;SDS011;9402;51.460;7.276;2022-10-15T01:47:52;5.80;;;4.50;;
18544;SDS011;9402;51.460;7.276;2022-10-15T01:49:56;5.67;;;3.83;;
18544;SDS011;9402;51.460;7.276;2022-10-15T01:52:03;6.80;;;4.07;;
18544;SDS011;9402;51.460;7.276;2022-10-15T01:54:08;7.40;;;4.73;;
18544;SDS011;9402;51.460;7.276;2022-10-15T01:56:13;8.37;;;4.60;;
18544;SDS011;9402;51.460;7.276;2022-10-15T01:58:18;8.87;;;5.57;;
18544;SDS011;9402;51.460;7.276;2022-10-15T02:00:21;7.60;;;5.00;;
18544;SDS011;9402;51.460;7.276;2022-10-15T02:02:25;8.37;;;5.47;;
18544;SDS011;9402;51.460;7.276;2022-10-15T02:04:28;13.17;;;6.10;;
18544;SDS011;9402;51.460;7.276;2022-10-15T02:06:33;8.97;;;5.77;;
18544;SDS011;9402;51.460;7.276;2022-10-15T02:08:42;9.07;;;5.93;;
18544;SDS011;9402;51.460;7.276;2022-10-15T02:10:48;6.20;;;4.77;;
18544;SDS011;9402;51.460;7.276;2022-10-15T02:12:58;10.93;;;5.00;;
18544;SDS011;9402;51.460;7.276;2022-10-15T02:15:07;10.47;;;5.30;;
18544;SDS011;9402;51.460;7.276;2022-10-15T02:17:12;9.23;;;5.50;;
18544;SDS011;9402;51.460;7.276;2022-10-15T02:19:20;8.90;;;5.00;;
18544;SDS011;9402;51.460;7.276;2022-10-15T02:21:27;8.93;;;5.77;;
18544;SDS011;9402;51.460;7.276;2022-10-15T02:23:35;12.73;;;6.30;;
18544;SDS011;9402;51.460;7.276;2022-10-15T02:25:41;11.30;;;6.77;;
18544;SDS011;9402;51.460;7.276;2022-10-15T02:27:44;11.10;;;6.37;;
18544;SDS011;9402;51.460;7.276;2022-10-15T02:29:49;11.30;;;7.10;;
18544;SDS011;9402;51.460;7.276;2022-10-15T02:31:52;11.93;;;6.87;;
18544;SDS011;9402;51.460;7.276;2022-10-15T02:33:57;12.43;;;7.13;;
18544;SDS011;9402;51.460;7.276;2022-10-15T02:36:04;11.10;;;6.57;;
18544;SDS011;9402;51.460;7.276;2022-10-15T02:38:07;14.30;;;8.07;;
18544;SDS011;9402;51.460;7.276;2022-10-15T02:40:12;10.77;;;5.77;;
18544;SDS011;9402;51.460;7.276;2022-10-15T02:42:14;10.70;;;7.10;;
18544;SDS011;9402;51.460;7.276;2022-10-15T02:44:17;10.27;;;6.57;;
18544;SDS011;9402;51.460;7.276;2022-10-15T02:46:20;14.10;;;6.13;;
18544;SDS011;9402;51.460;7.276;2022-10-15T02:48:22;9.30;;;5.03;;
18544;SDS011;9402;51.460;7.276;2022-10-15T02:50:25;10.00;;;5.90;;
18544;SDS011;9402;51.460;7.276;2022-10-15T02:52:29;11.60;;;6.93;;
18544;SDS011;9402;51.460;7.276;2022-10-15T02:54:31;14.17;;;5.90;;
18544;SDS011;9402;51.460;7.276;2022-10-15T02:56:34;9.70;;;5.70;;
18544;SDS011;9402;51.460;7.276;2022-10-15T02:58:38;9.90;;;6.10;;
18544;SDS011;9402;51.460;7.276;2022-10-15T03:00:40;11.07;;;6.10;;
18544;SDS011;9402;51.460;7.276;2022-10-15T03:02:42;10.47;;;5.80;;
18544;SDS011;9402;51.460;7.276;2022-10-15T03:04:45;14.90;;;5.70;;
18544;SDS011;9402;51.460;7.276;2022-10-15T03:06:47;10.50;;;5.73;;
18544;SDS011;9402;51.460;7.276;2022-10-15T03:08:51;9.23;;;6.40;;
18544;SDS011;9402;51.460;7.276;2022-10-15T03:10:54;11.97;;;6.60;;
18544;SDS011;9402;51.460;7.276;2022-10-15T03:13:00;14.87;;;7.87;;
18544;SDS011;9402;51.460;7.276;2022-10-15T03:15:04;11.40;;;6.93;;
18544;SDS011;9402;51.460;7.276;2022-10-15T03:17:07;16.83;;;8.63;;
18544;SDS011;9402;51.460;7.276;2022-10-15T03:19:10;15.47;;;7.97;;
18544;SDS011;9402;51.460;7.276;2022-10-15T03:21:12;16.53;;;9.17;;
18544;SDS011;9402;51.460;7.276;2022-10-15T03:23:15;18.47;;;11.23;;
18544;SDS011;9402;51.460;7.276;2022-10-15T03:25:18;17.40;;;8.97;;
18544;SDS011;9402;51.460;7.276;2022-10-15T03:27:21;17.23;;;10.00;;
18544;SDS011;9402;51.460;7.276;2022-10-15T03:29:23;21.27;;;10.93;;
18544;SDS011;9402;51.460;7.276;2022-10-15T03:31:26;21.23;;;11.70;;
18544;SDS011;9402;51.460;7.276;2022-10-15T03:33:28;20.77;;;11.80;;
18544;SDS011;9402;51.460;7.276;2022-10-15T03:35:30;24.50;;;12.60;;
18544;SDS011;9402;51.460;7.276;2022-10-15T03:37:33;22.23;;;11.27;;
18544;SDS011;9402;51.460;7.276;2022-10-15T03:39:35;21.87;;;11.93;;
18544;SDS011;9402;51.460;7.276;2022-10-15T03:41:39;20.87;;;11.47;;
18544;SDS011;9402;51.460;7.276;2022-10-15T03:43:41;22.87;;;12.50;;
18544;SDS011;9402;51.460;7.276;2022-10-15T03:45:44;24.10;;;13.03;;
18544;SDS011;9402;51.460;7.276;2022-10-15T03:47:46;25.93;;;12.93;;
18544;SDS011;9402;51.460;7.276;2022-10-15T03:49:48;24.00;;;13.10;;
18544;SDS011;9402;51.460;7.276;2022-10-15T03:51:51;27.17;;;14.17;;
18544;SDS011;9402;51.460;7.276;2022-10-15T03:53:53;25.10;;;13.03;;
18544;SDS011;9402;51.460;7.276;2022-10-15T03:56:01;26.33;;;13.67;;
18544;SDS011;9402;51.460;7.276;2022-10-15T03:58:05;31.53;;;15.33;;
18544;SDS011;9402;51.460;7.276;2022-10-15T04:00:08;33.00;;;14.47;;
18544;SDS011;9402;51.460;7.276;2022-10-15T04:02:12;27.27;;;13.80;;
18544;SDS011;9402;51.460;7.276;2022-10-15T04:04:15;25.00;;;13.73;;
18544;SDS011;9402;51.460;7.276;2022-10-15T04:06:17;28.17;;;13.97;;
18544;SDS011;9402;51.460;7.276;2022-10-15T04:08:19;38.40;;;17.30;;
18544;SDS011;9402;51.460;7.276;2022-10-15T04:10:22;30.07;;;14.83;;
18544;SDS011;9402;51.460;7.276;2022-10-15T04:12:24;26.50;;;14.87;;
18544;SDS011;9402;51.460;7.276;2022-10-15T04:14:28;30.50;;;14.97;;
18544;SDS011;9402;51.460;7.276;2022-10-15T04:16:30;30.63;;;14.40;;
18544;SDS011;9402;51.460;7.276;2022-10-15T04:18:33;27.33;;;13.57;;
18544;SDS011;9402;51.460;7.276;2022-10-15T04:20:35;26.53;;;14.83;;
18544;SDS011;9402;51.460;7.276;2022-10-15T04:22:38;28.70;;;16.17;;
18544;SDS011;9402;51.460;7.276;2022-10-15T04:24:40;27.80;;;14.40;;
18544;SDS011;9402;51.460;7.276;2022-10-15T04:26:42;27.57;;;14.93;;
18544;SDS011;9402;51.460;7.276;2022-10-15T04:28:46;29.83;;;14.90;;
18544;SDS011;9402;51.460;7.276;2022-10-15T04:30:50;27.80;;;14.60;;
18544;SDS011;9402;51.460;7.276;2022-10-15T04:32:55;31.00;;;15.73;;
18544;SDS011;9402;51.460;7.276;2022-10-15T04:34:58;34.70;;;16.90;;
18544;SDS011;9402;51.460;7.276;2022-10-15T04:37:00;30.50;;;16.03;;
18544;SDS011;9402;51.460;7.276;2022-10-15T04:39:03;39.40;;;18.57;;
18544;SDS011;9402;51.460;7.276;2022-10-15T04:41:07;30.33;;;15.40;;
18544;SDS011;9402;51.460;7.276;2022-10-15T04:43:10;40.13;;;18.17;;
18544;SDS011;9402;51.460;7.276;2022-10-15T04:45:13;27.47;;;15.77;;
18544;SDS011;9402;51.460;7.276;2022-10-15T04:47:17;32.50;;;17.57;;
18544;SDS011;9402;51.460;7.276;2022-10-15T04:49:19;34.87;;;18.10;;
18544;SDS011;9402;51.460;7.276;2022-10-15T04:51:22;36.60;;;19.07;;
18544;SDS011;9402;51.460;7.276;2022-10-15T04:53:25;38.17;;;19.50;;
18544;SDS011;9402;51.460;7.276;2022-10-15T04:55:28;34.67;;;17.30;;
18544;SDS011;9402;51.460;7.276;2022-10-15T04:57:31;34.87;;;18.40;;
18544;SDS011;9402;51.460;7.276;2022-10-15T04:59:33;39.20;;;20.60;;
18544;SDS011;9402;51.460;7.276;2022-10-15T05:01:36;33.13;;;18.07;;
18544;SDS011;9402;51.460;7.276;2022-10-15T05:03:40;40.97;;;19.00;;
18544;SDS011;9402;51.460;7.276;2022-10-15T05:05:44;41.00;;;19.50;;
18544;SDS011;9402;51.460;7.276;2022-10-15T05:07:46;34.97;;;18.53;;
18544;SDS011;9402;51.460;7.276;2022-10-15T05:09:48;39.17;;;21.23;;
18544;SDS011;9402;51.460;7.276;2022-10-15T05:11:51;33.50;;;19.00;;
18544;SDS011;9402;51.460;7.276;2022-10-15T05:13:55;36.90;;;18.90;;
18544;SDS011;9402;51.460;7.276;2022-10-15T05:16:06;35.23;;;18.60;;
18544;SDS011;9402;51.460;7.276;2022-10-15T05:18:10;38.37;;;20.10;;
18544;SDS011;9402;51.460;7.276;2022-10-15T05:20:14;41.73;;;20.17;;
18544;SDS011;9402;51.460;7.276;2022-10-15T05:22:16;36.33;;;20.27;;
18544;SDS011;9402;51.460;7.276;2022-10-15T05:24:18;38.70;;;19.33;;
18544;SDS011;9402;51.460;7.276;2022-10-15T05:26:21;46.50;;;21.00;;
18544;SDS011;9402;51.460;7.276;2022-10-15T05:28:25;33.73;;;18.10;;
18544;SDS011;9402;51.460;7.276;2022-10-15T05:30:27;46.57;;;22.07;;
18544;SDS011;9402;51.460;7.276;2022-10-15T05:32:30;42.70;;;21.00;;
18544;SDS011;9402;51.460;7.276;2022-10-15T05:34:32;41.30;;;20.03;;
18544;SDS011;9402;51.460;7.276;2022-10-15T05:36:36;48.00;;;22.57;;
18544;SDS011;9402;51.460;7.276;2022-10-15T05:38:38;41.27;;;21.10;;
18544;SDS011;9402;51.460;7.276;2022-10-15T05:40:46;48.70;;;21.57;;
18544;SDS011;9402;51.460;7.276;2022-10-15T05:42:50;39.00;;;20.80;;
18544;SDS011;9402;51.460;7.276;2022-10-15T05:44:53;40.63;;;19.53;;
18544;SDS011;9402;51.460;7.276;2022-10-15T05:46:55;41.77;;;19.27;;
18544;SDS011;9402;51.460;7.276;2022-10-15T05:48:57;42.97;;;20.43;;
18544;SDS011;9402;51.460;7.276;2022-10-15T05:51:00;45.57;;;20.57;;
18544;SDS011;9402;51.460;7.276;2022-10-15T05:53:04;43.33;;;21.33;;
18544;SDS011;9402;51.460;7.276;2022-10-15T05:55:07;34.10;;;19.03;;
18544;SDS011;9402;51.460;7.276;2022-10-15T05:57:10;33.77;;;18.77;;
18544;SDS011;9402;51.460;7.276;2022-10-15T05:59:12;42.60;;;18.70;;
18544;SDS011;9402;51.460;7.276;2022-10-15T06:01:14;40.10;;;18.80;;
18544;SDS011;9402;51.460;7.276;2022-10-15T06:03:17;40.47;;;20.53;;
18544;SDS011;9402;51.460;7.276;2022-10-15T06:05:19;42.87;;;19.07;;
18544;SDS011;9402;51.460;7.276;2022-10-15T06:07:22;34.53;;;19.10;;
18544;SDS011;9402;51.460;7.276;2022-10-15T06:09:26;36.60;;;18.53;;
18544;SDS011;9402;51.460;7.276;2022-10-15T06:11:29;35.30;;;19.00;;
18544;SDS011;9402;51.460;7.276;2022-10-15T06:13:32;35.07;;;17.97;;
18544;SDS011;9402;51.460;7.276;2022-10-15T06:15:37;35.57;;;19.37;;
18544;SDS011;9402;51.460;7.276;2022-10-15T06:17:39;42.13;;;18.90;;
18544;SDS011;9402;51.460;7.276;2022-10-15T06:19:42;38.63;;;18.97;;
18544;SDS011;9402;51.460;7.276;2022-10-15T06:21:44;37.67;;;18.00;;
18544;SDS011;9402;51.460;7.276;2022-10-15T06:23:47;37.27;;;18.53;;
18544;SDS011;9402;51.460;7.276;2022-10-15T06:25:50;42.50;;;19.17;;
18544;SDS011;9402;51.460;7.276;2022-10-15T06:27:53;39.23;;;19.63;;
18544;SDS011;9402;51.460;7.276;2022-10-15T06:29:55;38.07;;;18.20;;
18544;SDS011;9402;51.460;7.276;2022-10-15T06:31:58;37.10;;;18.20;;
18544;SDS011;9402;51.460;7.276;2022-10-15T06:34:00;33.97;;;18.20;;
18544;SDS011;9402;51.460;7.276;2022-10-15T06:36:03;41.20;;;19.20;;
18544;SDS011;9402;51.460;7.276;2022-10-15T06:38:07;44.87;;;19.93;;
18544;SDS011;9402;51.460;7.276;2022-10-15T06:40:10;37.53;;;19.47;;
18544;SDS011;9402;51.460;7.276;2022-10-15T06:42:14;34.57;;;17.47;;
18544;SDS011;9402;51.460;7.276;2022-10-15T06:44:16;40.87;;;18.87;;
18544;SDS011;9402;51.460;7.276;2022-10-15T06:46:19;39.37;;;19.30;;
18544;SDS011;9402;51.460;7.276;2022-10-15T06:48:21;36.23;;;17.97;;
18544;SDS011;9402;51.460;7.276;2022-10-15T06:50:24;35.13;;;16.93;;
18544;SDS011;9402;51.460;7.276;2022-10-15T06:52:28;27.57;;;15.73;;
18544;SDS011;9402;51.460;7.276;2022-10-15T06:54:30;34.60;;;18.60;;
18544;SDS011;9402;51.460;7.276;2022-10-15T06:56:32;38.57;;;19.43;;
18544;SDS011;9402;51.460;7.276;2022-10-15T06:58:39;36.97;;;18.70;;
18544;SDS011;9402;51.460;7.276;2022-10-15T07:00:42;36.40;;;17.60;;
18544;SDS011;9402;51.460;7.276;2022-10-15T07:02:44;37.37;;;18.80;;
18544;SDS011;9402;51.460;7.276;2022-10-15T07:04:47;31.67;;;17.97;;
18544;SDS011;9402;51.460;7.276;2022-10-15T07:06:49;35.00;;;17.93;;
18544;SDS011;9402;51.460;7.276;2022-10-15T07:08:52;42.93;;;19.07;;
18544;SDS011;9402;51.460;7.276;2022-10-15T07:10:54;35.03;;;18.17;;
18544;SDS011;9402;51.460;7.276;2022-10-15T07:12:58;36.40;;;18.40;;
18544;SDS011;9402;51.460;7.276;2022-10-15T07:15:02;39.60;;;19.20;;
18544;SDS011;9402;51.460;7.276;2022-10-15T07:17:06;35.23;;;18.70;;
18544;SDS011;9402;51.460;7.276;2022-10-15T07:19:08;37.40;;;17.30;;
18544;SDS011;9402;51.460;7.276;2022-10-15T07:21:11;42.23;;;18.83;;
18544;SDS011;9402;51.460;7.276;2022-10-15T07:23:13;35.10;;;17.73;;
18544;SDS011;9402;51.460;7.276;2022-10-15T07:25:16;38.90;;;18.97;;
18544;SDS011;9402;51.460;7.276;2022-10-15T07:27:18;35.90;;;19.33;;
18544;SDS011;9402;51.460;7.276;2022-10-15T07:29:20;33.37;;;18.27;;
18544;SDS011;9402;51.460;7.276;2022-10-15T07:31:24;34.73;;;18.13;;
18544;SDS011;9402;51.460;7.276;2022-10-15T07:33:27;40.50;;;18.00;;
18544;SDS011;9402;51.460;7.276;2022-10-15T07:35:29;44.30;;;19.00;;
18544;SDS011;9402;51.460;7.276;2022-10-15T07:37:33;37.23;;;18.50;;
18544;SDS011;9402;51.460;7.276;2022-10-15T07:39:35;39.80;;;19.60;;
18544;SDS011;9402;51.460;7.276;2022-10-15T07:41:38;41.77;;;19.27;;
18544;SDS011;9402;51.460;7.276;2022-10-15T07:43:40;29.80;;;17.10;;
18544;SDS011;9402;51.460;7.276;2022-10-15T07:45:46;34.33;;;16.63;;
18544;SDS011;9402;51.460;7.276;2022-10-15T07:47:50;34.37;;;17.67;;
18544;SDS011;9402;51.460;7.276;2022-10-15T07:49:53;34.43;;;16.67;;
18544;SDS011;9402;51.460;7.276;2022-10-15T07:51:56;36.67;;;18.27;;
18544;SDS011;9402;51.460;7.276;2022-10-15T07:53:58;35.50;;;17.17;;
18544;SDS011;9402;51.460;7.276;2022-10-15T07:56:01;38.33;;;16.13;;
18544;SDS011;9402;51.460;7.276;2022-10-15T07:58:05;31.13;;;16.13;;
18544;SDS011;9402;51.460;7.276;2022-10-15T08:00:08;30.90;;;16.10;;
18544;SDS011;9402;51.460;7.276;2022-10-15T08:02:12;28.97;;;15.50;;
18544;SDS011;9402;51.460;7.276;2022-10-15T08:04:17;38.23;;;15.83;;
18544;SDS011;9402;51.460;7.276;2022-10-15T08:06:20;36.70;;;17.40;;
18544;SDS011;9402;51.460;7.276;2022-10-15T08:08:23;29.77;;;15.70;;
18544;SDS011;9402;51.460;7.276;2022-10-15T08:10:25;34.97;;;17.83;;
18544;SDS011;9402;51.460;7.276;2022-10-15T08:12:28;36.70;;;18.40;;
18544;SDS011;9402;51.460;7.276;2022-10-15T08:14:30;38.37;;;17.20;;
18544;SDS011;9402;51.460;7.276;2022-10-15T08:16:33;34.03;;;17.33;;
18544;SDS011;9402;51.460;7.276;2022-10-15T08:18:35;29.27;;;17.90;;
18544;SDS011;9402;51.460;7.276;2022-10-15T08:20:39;35.37;;;17.23;;
18544;SDS011;9402;51.460;7.276;2022-10-15T08:22:42;30.30;;;16.20;;
18544;SDS011;9402;51.460;7.276;2022-10-15T08:24:44;34.80;;;18.60;;
18544;SDS011;9402;51.460;7.276;2022-10-15T08:26:47;28.70;;;15.40;;
18544;SDS011;9402;51.460;7.276;2022-10-15T08:28:49;29.47;;;14.63;;
18544;SDS011;9402;51.460;7.276;2022-10-15T08:30:52;31.03;;;15.73;;
18544;SDS011;9402;51.460;7.276;2022-10-15T08:32:55;21.47;;;13.03;;
18544;SDS011;9402;51.460;7.276;2022-10-15T08:34:58;24.77;;;13.50;;
18544;SDS011;9402;51.460;7.276;2022-10-15T08:37:02;29.83;;;13.17;;
18544;SDS011;9402;51.460;7.276;2022-10-15T08:39:05;19.57;;;11.77;;
18544;SDS011;9402;51.460;7.276;2022-10-15T08:41:13;21.50;;;12.83;;
18544;SDS011;9402;51.460;7.276;2022-10-15T08:43:22;16.50;;;9.47;;
18544;SDS011;9402;51.460;7.276;2022-10-15T08:45:27;18.70;;;10.07;;
18544;SDS011;9402;51.460;7.276;2022-10-15T08:47:33;15.83;;;10.00;;
18544;SDS011;9402;51.460;7.276;2022-10-15T08:49:40;13.80;;;9.40;;
18544;SDS011;9402;51.460;7.276;2022-10-15T08:51:45;11.67;;;9.00;;
18544;SDS011;9402;51.460;7.276;2022-10-15T08:53:50;23.40;;;9.00;;
18544;SDS011;9402;51.460;7.276;2022-10-15T08:55:55;13.07;;;8.13;;
18544;SDS011;9402;51.460;7.276;2022-10-15T08:58:02;12.80;;;8.17;;
18544;SDS011;9402;51.460;7.276;2022-10-15T09:00:14;15.60;;;8.10;;
18544;SDS011;9402;51.460;7.276;2022-10-15T09:02:20;14.97;;;9.47;;
18544;SDS011;9402;51.460;7.276;2022-10-15T09:04:27;14.10;;;8.23;;
18544;SDS011;9402;51.460;7.276;2022-10-15T09:06:32;13.20;;;7.00;;
18544;SDS011;9402;51.460;7.276;2022-10-15T09:08:37;13.33;;;6.63;;
18544;SDS011;9402;51.460;7.276;2022-10-15T09:10:47;9.93;;;6.30;;
18544;SDS011;9402;51.460;7.276;2022-10-15T09:12:53;9.33;;;6.70;;
18544;SDS011;9402;51.460;7.276;2022-10-15T09:14:58;7.63;;;4.70;;
18544;SDS011;9402;51.460;7.276;2022-10-15T09:17:03;15.40;;;4.63;;
18544;SDS011;9402;51.460;7.276;2022-10-15T09:19:11;7.30;;;3.60;;
18544;SDS011;9402;51.460;7.276;2022-10-15T09:21:15;3.63;;;2.83;;
18544;SDS011;9402;51.460;7.276;2022-10-15T09:23:19;5.33;;;3.83;;
18544;SDS011;9402;51.460;7.276;2022-10-15T09:25:23;5.40;;;3.30;;
18544;SDS011;9402;51.460;7.276;2022-10-15T09:27:28;5.37;;;3.30;;
18544;SDS011;9402;51.460;7.276;2022-10-15T09:29:35;4.63;;;2.63;;
18544;SDS011;9402;51.460;7.276;2022-10-15T09:31:41;4.30;;;2.33;;
18544;SDS011;9402;51.460;7.276;2022-10-15T09:33:47;2.83;;;1.80;;
18544;SDS011;9402;51.460;7.276;2022-10-15T09:35:53;3.43;;;1.63;;
18544;SDS011;9402;51.460;7.276;2022-10-15T09:38:00;3.20;;;1.97;;
18544;SDS011;9402;51.460;7.276;2022-10-15T09:40:21;1.73;;;1.60;;
18544;SDS011;9402;51.460;7.276;2022-10-15T09:42:33;2.40;;;1.60;;
18544;SDS011;9402;51.460;7.276;2022-10-15T09:44:37;2.13;;;1.40;;
18544;SDS011;9402;51.460;7.276;2022-10-15T09:46:42;1.50;;;1.17;;
18544;SDS011;9402;51.460;7.276;2022-10-15T09:48:46;1.67;;;1.00;;
18544;SDS011;9402;51.460;7.276;2022-10-15T09:50:52;1.40;;;1.03;;
18544;SDS011;9402;51.460;7.276;2022-10-15T09:52:59;1.50;;;0.97;;
18544;SDS011;9402;51.460;7.276;2022-10-15T09:55:08;1.40;;;1.00;;
18544;SDS011;9402;51.460;7.276;2022-10-15T09:57:15;1.30;;;1.03;;
18544;SDS011;9402;51.460;7.276;2022-10-15T09:59:20;1.10;;;0.83;;
18544;SDS011;9402;51.460;7.276;2022-10-15T10:01:23;1.40;;;1.00;;
18544;SDS011;9402;51.460;7.276;2022-10-15T10:03:27;3.10;;;1.30;;
18544;SDS011;9402;51.460;7.276;2022-10-15T10:05:32;3.40;;;0.90;;
18544;SDS011;9402;51.460;7.276;2022-10-15T10:07:38;2.27;;;1.20;;
18544;SDS011;9402;51.460;7.276;2022-10-15T10:09:47;1.17;;;0.83;;
18544;SDS011;9402;51.460;7.276;2022-10-15T10:11:53;1.47;;;1.00;;
18544;SDS011;9402;51.460;7.276;2022-10-15T10:13:56;12.53;;;1.00;;
18544;SDS011;9402;51.460;7.276;2022-10-15T10:16:02;1.80;;;0.90;;
18544;SDS011;9402;51.460;7.276;2022-10-15T10:18:08;1.20;;;0.90;;
18544;SDS011;9402;51.460;7.276;2022-10-15T10:20:19;1.10;;;0.80;;
18544;SDS011;9402;51.460;7.276;2022-10-15T10:22:22;1.43;;;1.00;;
18544;SDS011;9402;51.460;7.276;2022-10-15T10:24:26;1.30;;;0.73;;
18544;SDS011;9402;51.460;7.276;2022-10-15T10:26:33;1.03;;;0.70;;
18544;SDS011;9402;51.460;7.276;2022-10-15T10:28:36;2.23;;;0.80;;
18544;SDS011;9402;51.460;7.276;2022-10-15T10:30:48;1.13;;;0.70;;
18544;SDS011;9402;51.460;7.276;2022-10-15T10:33:03;1.00;;;0.60;;
18544;SDS011;9402;51.460;7.276;2022-10-15T10:35:06;1.70;;;0.80;;
18544;SDS011;9402;51.460;7.276;2022-10-15T10:37:21;1.87;;;0.70;;
18544;SDS011;9402;51.460;7.276;2022-10-15T10:39:24;3.10;;;0.67;;
18544;SDS011;9402;51.460;7.276;2022-10-15T10:43:51;1.10;;;0.80;;
18544;SDS011;9402;51.460;7.276;2022-10-15T10:45:55;1.10;;;0.70;;
18544;SDS011;9402;51.460;7.276;2022-10-15T10:47:58;3.30;;;0.83;;
18544;SDS011;9402;51.460;7.276;2022-10-15T10:50:28;1.20;;;0.70;;
18544;SDS011;9402;51.460;7.276;2022-10-15T10:52:32;1.00;;;0.60;;
18544;SDS011;9402;51.460;7.276;2022-10-15T10:54:35;2.07;;;1.10;;
18544;SDS011;9402;51.460;7.276;2022-10-15T10:56:39;4.10;;;0.80;;
18544;SDS011;9402;51.460;7.276;2022-10-15T10:58:43;2.40;;;0.80;;
18544;SDS011;9402;51.460;7.276;2022-10-15T11:00:46;1.60;;;0.90;;
18544;SDS011;9402;51.460;7.276;2022-10-15T11:02:49;5.20;;;2.23;;
18544;SDS011;9402;51.460;7.276;2022-10-15T11:04:53;1.10;;;0.70;;
18544;SDS011;9402;51.460;7.276;2022-10-15T11:06:57;6.60;;;0.80;;
18544;SDS011;9402;51.460;7.276;2022-10-15T11:09:09;1.40;;;0.80;;
18544;SDS011;9402;51.460;7.276;2022-10-15T11:11:18;1.20;;;0.70;;
18544;SDS011;9402;51.460;7.276;2022-10-15T11:13:27;1.03;;;0.70;;
18544;SDS011;9402;51.460;7.276;2022-10-15T11:15:37;1.40;;;0.80;;
18544;SDS011;9402;51.460;7.276;2022-10-15T11:17:46;1.30;;;0.80;;
18544;SDS011;9402;51.460;7.276;2022-10-15T11:19:54;1.57;;;0.70;;
18544;SDS011;9402;51.460;7.276;2022-10-15T11:22:07;2.43;;;0.70;;
18544;SDS011;9402;51.460;7.276;2022-10-15T11:24:19;1.30;;;0.80;;
18544;SDS011;9402;51.460;7.276;2022-10-15T11:26:29;2.47;;;0.70;;
18544;SDS011;9402;51.460;7.276;2022-10-15T11:28:41;3.83;;;1.00;;
18544;SDS011;9402;51.460;7.276;2022-10-15T11:30:50;1.20;;;0.70;;
18544;SDS011;9402;51.460;7.276;2022-10-15T11:33:00;2.80;;;0.70;;
18544;SDS011;9402;51.460;7.276;2022-10-15T11:35:18;2.57;;;0.90;;
18544;SDS011;9402;51.460;7.276;2022-10-15T11:37:33;1.20;;;0.80;;
18544;SDS011;9402;51.460;7.276;2022-10-15T11:39:45;1.20;;;0.87;;
18544;SDS011;9402;51.460;7.276;2022-10-15T11:41:54;1.30;;;1.00;;
18544;SDS011;9402;51.460;7.276;2022-10-15T11:44:08;1.20;;;0.90;;
18544;SDS011;9402;51.460;7.276;2022-10-15T11:46:21;1.10;;;0.80;;
18544;SDS011;9402;51.460;7.276;2022-10-15T11:48:32;1.40;;;0.70;;
18544;SDS011;9402;51.460;7.276;2022-10-15T11:50:43;1.70;;;1.00;;
18544;SDS011;9402;51.460;7.276;2022-10-15T11:52:52;1.03;;;0.70;;
18544;SDS011;9402;51.460;7.276;2022-10-15T11:55:18;2.07;;;0.80;;
18544;SDS011;9402;51.460;7.276;2022-10-15T11:57:21;1.13;;;0.80;;
18544;SDS011;9402;51.460;7.276;2022-10-15T11:59:32;1.10;;;0.77;;
18544;SDS011;9402;51.460;7.276;2022-10-15T12:01:38;1.80;;;0.73;;
18544;SDS011;9402;51.460;7.276;2022-10-15T12:03:48;1.10;;;0.80;;
18544;SDS011;9402;51.460;7.276;2022-10-15T12:05:55;4.17;;;1.40;;
18544;SDS011;9402;51.460;7.276;2022-10-15T12:08:00;9.03;;;1.47;;
18544;SDS011;9402;51.460;7.276;2022-10-15T12:10:04;1.10;;;0.83;;
18544;SDS011;9402;51.460;7.276;2022-10-15T12:12:24;1.10;;;0.70;;
18544;SDS011;9402;51.460;7.276;2022-10-15T12:14:33;2.20;;;0.83;;
18544;SDS011;9402;51.460;7.276;2022-10-15T12:16:40;1.50;;;0.80;;
18544;SDS011;9402;51.460;7.276;2022-10-15T12:18:48;4.70;;;1.20;;
18544;SDS011;9402;51.460;7.276;2022-10-15T12:20:54;3.73;;;1.10;;
18544;SDS011;9402;51.460;7.276;2022-10-15T12:22:58;5.20;;;1.80;;
18544;SDS011;9402;51.460;7.276;2022-10-15T12:25:00;2.03;;;1.00;;
18544;SDS011;9402;51.460;7.276;2022-10-15T12:27:13;1.43;;;0.80;;
18544;SDS011;9402;51.460;7.276;2022-10-15T12:29:18;1.73;;;0.90;;
18544;SDS011;9402;51.460;7.276;2022-10-15T12:31:22;1.00;;;0.67;;
18544;SDS011;9402;51.460;7.276;2022-10-15T12:33:28;1.53;;;0.77;;